Time;durP1;ratioP1;P1;durP2;ratioP2;P2;SDS_P1;SDS_P2;PMS_P1;PMS_P2;Temp;Humidity;BMP_temperature;BMP_pressure;BME280_temperature;BME280_humidity;BME280_pressure;Samples;Min_cycle;Max_cycle;Signal;HPM_P1;HPM_P2
2022/01/26 00:00:57;;;;;;;11.47;6.73;;;5.50;73.10;;;;;;4993141;28;20703;-87
2022/01/26 00:06:15;;;;;;;11.43;5.97;;;5.50;46.80;;;;;;4993228;28;20235;-85
2022/01/26 00:08:42;;;;;;;10.90;6.27;;;5.40;39.40;;;;;;4992990;28;20183;-84
2022/01/26 00:11:10;;;;;;;14.20;7.20;;;5.40;30.90;;;;;;4993247;28;20210;-85
2022/01/26 00:13:37;;;;;;;12.33;6.73;;;5.40;28.70;;;;;;4992686;28;20644;-85
2022/01/26 00:16:09;;;;;;;12.17;6.93;;;5.40;27.70;;;;;;4992966;28;20194;-85
2022/01/26 00:18:38;;;;;;;10.97;6.70;;;5.40;26.80;;;;;;4992686;28;20738;-85
2022/01/26 00:21:11;;;;;;;11.50;6.67;;;5.50;25.10;;;;;;4992615;28;20203;-85
2022/01/26 00:24:04;;;;;;;11.67;6.00;;;5.40;23.40;;;;;;4993031;28;20194;-85
2022/01/26 00:26:38;;;;;;;12.37;6.70;;;5.40;23.90;;;;;;4996843;28;20281;-85
2022/01/26 00:29:13;;;;;;;13.13;6.33;;;5.40;22.20;;;;;;4996544;28;20183;-84
2022/01/26 00:40:02;;;;;;;11.03;6.63;;;5.40;18.20;;;;;;4989664;28;20194;-86
2022/01/26 00:42:35;;;;;;;13.03;6.83;;;5.40;15.50;;;;;;4996358;28;20179;-85
2022/01/26 00:45:02;;;;;;;13.33;6.57;;;5.40;11.50;;;;;;4996221;28;20311;-86
2022/01/26 00:47:29;;;;;;;10.60;5.90;;;5.40;10.30;;;;;;4995814;28;20207;-84
2022/01/26 00:50:01;;;;;;;10.03;5.50;;;5.40;10.10;;;;;;4996395;28;20194;-85
2022/01/26 00:52:38;;;;;;;10.30;6.10;;;5.40;11.00;;;;;;4996403;28;20218;-85
2022/01/26 00:55:06;;;;;;;12.40;5.93;;;5.40;10.80;;;;;;4996003;28;20221;-85
2022/01/26 00:57:34;;;;;;;11.63;6.23;;;5.40;12.00;;;;;;4995864;28;20257;-85
2022/01/26 01:00:01;;;;;;;12.90;7.20;;;5.40;13.60;;;;;;4995750;28;20281;-87
2022/01/26 01:02:30;;;;;;;12.80;6.97;;;5.40;15.40;;;;;;4995782;28;20607;-85
2022/01/26 01:05:00;;;;;;;13.50;6.97;;;5.40;17.30;;;;;;4995769;28;20556;-85
2022/01/26 01:07:31;;;;;;;15.27;7.53;;;5.40;18.50;;;;;;4996002;28;20213;-85
2022/01/26 01:10:01;;;;;;;14.50;8.40;;;5.40;19.40;;;;;;4995763;28;20183;-85
2022/01/26 01:12:28;;;;;;;14.60;7.90;;;5.40;19.60;;;;;;4995925;28;20199;-84
2022/01/26 01:14:57;;;;;;;17.03;8.93;;;5.40;17.70;;;;;;4995963;28;20225;-85
2022/01/26 01:17:31;;;;;;;19.03;9.47;;;5.40;16.00;;;;;;4995845;28;20253;-85
2022/01/26 01:20:12;;;;;;;16.23;8.50;;;5.40;16.00;;;;;;4995453;28;20213;-84
2022/01/26 01:22:51;;;;;;;15.07;7.87;;;5.40;16.20;;;;;;4995780;28;20190;-85
2022/01/26 01:28:29;;;;;;;12.43;6.10;;;5.40;24.30;;;;;;4971566;28;20198;-85
2022/01/26 01:31:06;;;;;;;11.17;5.90;;;5.30;29.30;;;;;;4995383;28;20694;-86
2022/01/26 01:33:38;;;;;;;10.50;6.33;;;5.40;35.30;;;;;;4995584;28;20205;-85
2022/01/26 01:36:06;;;;;;;11.50;6.20;;;5.30;38.10;;;;;;4994550;28;20194;-85
2022/01/26 01:38:39;;;;;;;11.70;6.30;;;5.40;40.80;;;;;;4995073;28;20687;-84
2022/01/26 01:41:06;;;;;;;12.97;6.80;;;5.40;43.50;;;;;;4995127;28;20184;-86
2022/01/26 01:43:33;;;;;;;12.10;6.60;;;5.40;47.50;;;;;;4995328;28;20195;-86
2022/01/26 01:46:03;;;;;;;11.73;5.73;;;5.40;50.90;;;;;;4994939;28;20199;-85
2022/01/26 01:48:32;;;;;;;13.00;6.63;;;5.40;53.10;;;;;;4995301;28;20249;-85
2022/01/26 01:51:03;;;;;;;13.57;6.40;;;5.40;54.50;;;;;;4994920;28;20202;-86
2022/01/26 01:53:38;;;;;;;12.73;6.20;;;5.40;57.50;;;;;;4995217;28;20199;-87
2022/01/26 01:56:07;;;;;;;14.87;7.87;;;5.40;62.60;;;;;;4994826;28;20205;-85
2022/01/26 01:58:34;;;;;;;13.47;6.73;;;5.40;64.70;;;;;;4994673;28;20273;-85
2022/01/26 02:01:03;;;;;;;14.13;6.83;;;5.40;64.70;;;;;;4994735;28;20201;-85
2022/01/26 02:03:30;;;;;;;15.97;7.90;;;5.40;66.60;;;;;;4995060;28;20261;-85
2022/01/26 02:05:57;;;;;;;16.80;8.47;;;5.40;66.10;;;;;;4994958;28;20277;-86
2022/01/26 02:08:24;;;;;;;14.80;7.47;;;5.40;59.40;;;;;;4994880;28;20199;-84
2022/01/26 02:10:52;;;;;;;16.00;7.70;;;5.40;58.20;;;;;;4995052;28;20245;-86
2022/01/26 02:13:24;;;;;;;13.73;7.23;;;5.40;58.50;;;;;;4995119;28;20194;-86
2022/01/26 02:15:58;;;;;;;13.20;7.10;;;5.40;60.90;;;;;;4995228;28;20553;-85
2022/01/26 02:18:50;;;;;;;14.33;6.73;;;5.40;62.60;;;;;;4994796;28;20218;-85
2022/01/26 02:22:02;;;;;;;12.47;6.80;;;5.30;66.00;;;;;;4994695;28;20195;-85
2022/01/26 02:52:15;;;;;;;11.50;6.23;;;5.30;93.50;;;;;;4991104;28;20718;-85
2022/01/26 02:54:54;;;;;;;11.10;6.50;;;5.30;95.20;;;;;;4994175;28;20179;-85
2022/01/26 02:57:38;;;;;;;10.87;5.73;;;5.30;96.80;;;;;;4994031;28;20181;-84
2022/01/26 03:00:19;;;;;;;10.60;5.70;;;5.30;97.50;;;;;;4993590;28;20203;-84
2022/01/26 03:02:52;;;;;;;10.43;5.60;;;5.30;97.20;;;;;;4994019;28;20270;-85
2022/01/26 03:05:22;;;;;;;11.87;6.23;;;5.30;97.30;;;;;;4993927;28;20190;-84
2022/01/26 03:07:54;;;;;;;10.83;5.93;;;5.30;97.20;;;;;;4993904;28;20187;-85
2022/01/26 03:10:30;;;;;;;10.47;5.90;;;5.30;98.60;;;;;;4993811;28;20187;-85
2022/01/26 03:12:58;;;;;;;12.03;5.80;;;5.30;99.90;;;;;;4993728;28;20190;-84
2022/01/26 03:15:30;;;;;;;11.63;6.20;;;5.30;99.90;;;;;;4993856;28;20529;-85
2022/01/26 03:18:18;;;;;;;10.77;4.77;;;5.30;99.90;;;;;;4994103;28;20191;-85
2022/01/26 03:20:47;;;;;;;9.83;5.67;;;5.30;99.90;;;;;;4993651;28;20196;-84
2022/01/26 03:28:59;;;;;;;9.93;5.60;;;5.30;99.90;;;;;;4975986;28;20277;-86
2022/01/26 03:34:25;;;;;;;10.90;5.93;;;5.30;99.90;;;;;;4993153;28;20210;-86
2022/01/26 03:36:55;;;;;;;9.20;5.30;;;5.30;99.90;;;;;;4993556;28;20253;-85
2022/01/26 03:39:25;;;;;;;10.43;5.70;;;5.30;99.90;;;;;;4993053;28;20209;-84
2022/01/26 03:42:03;;;;;;;9.43;5.37;;;5.30;99.90;;;;;;4992956;28;20245;-85
2022/01/26 03:44:30;;;;;;;11.27;5.30;;;5.30;99.90;;;;;;4993937;28;20194;-85
2022/01/26 03:46:57;;;;;;;8.93;5.50;;;5.30;99.90;;;;;;4993107;28;20195;-85
2022/01/26 03:49:24;;;;;;;10.67;5.37;;;5.30;99.90;;;;;;4992890;28;20559;-84
2022/01/26 03:51:51;;;;;;;8.13;4.67;;;5.30;99.90;;;;;;4993210;28;20651;-85
2022/01/26 03:54:19;;;;;;;7.70;4.33;;;5.30;99.90;;;;;;4992868;28;20199;-84
2022/01/26 03:56:47;;;;;;;8.63;4.80;;;5.30;99.90;;;;;;4993188;28;20221;-86
2022/01/26 03:59:15;;;;;;;6.93;4.20;;;5.30;99.90;;;;;;4993231;28;20218;-86
2022/01/26 04:01:43;;;;;;;8.17;4.27;;;5.30;99.90;;;;;;4997293;28;20202;-84
2022/01/26 04:04:10;;;;;;;8.23;4.37;;;5.20;99.90;;;;;;4997172;28;20202;-84
2022/01/26 04:06:37;;;;;;;7.50;4.37;;;5.20;99.90;;;;;;4997235;28;20249;-85
2022/01/26 04:09:09;;;;;;;8.90;4.37;;;5.20;99.90;;;;;;4997215;28;20198;-85
2022/01/26 04:11:38;;;;;;;6.87;4.17;;;5.20;99.90;;;;;;4996801;28;20632;-86
2022/01/26 04:14:08;;;;;;;7.23;4.03;;;5.20;99.90;;;;;;4996760;28;20195;-85
2022/01/26 04:16:39;;;;;;;6.90;3.90;;;5.20;99.90;;;;;;4996699;28;20189;-85
2022/01/26 04:19:06;;;;;;;8.83;4.27;;;5.20;99.90;;;;;;4996879;28;20203;-85
2022/01/26 04:21:49;;;;;;;9.60;5.00;;;5.20;99.90;;;;;;4997269;28;20201;-85
2022/01/26 04:24:20;;;;;;;10.23;4.37;;;5.20;99.90;;;;;;4996610;28;20190;-85
2022/01/26 04:26:52;;;;;;;9.80;5.00;;;5.10;99.90;;;;;;4996928;28;20282;-85
2022/01/26 04:29:24;;;;;;;12.07;5.47;;;5.20;99.90;;;;;;4996483;28;20190;-85
2022/01/26 04:31:53;;;;;;;11.17;4.93;;;5.10;99.90;;;;;;4996494;28;20233;-86
2022/01/26 04:34:20;;;;;;;10.63;5.47;;;5.10;99.90;;;;;;4996577;28;20195;-86
2022/01/26 04:36:52;;;;;;;11.63;5.80;;;5.20;99.90;;;;;;4996593;28;20194;-84
2022/01/26 04:39:24;;;;;;;11.00;5.50;;;5.10;99.90;;;;;;4996229;28;20685;-85
2022/01/26 04:41:54;;;;;;;10.83;5.23;;;5.10;99.90;;;;;;4996555;28;20203;-84
2022/01/26 04:44:24;;;;;;;12.07;6.07;;;5.10;99.90;;;;;;4996538;28;20210;-84
2022/01/26 04:46:53;;;;;;;10.07;5.43;;;5.20;99.90;;;;;;4996328;28;20201;-85
2022/01/26 04:49:20;;;;;;;9.97;5.50;;;5.10;99.90;;;;;;4996399;28;20260;-85
2022/01/26 04:51:48;;;;;;;9.63;5.23;;;5.10;99.90;;;;;;4996476;28;20246;-86
2022/01/26 04:54:15;;;;;;;10.63;5.50;;;5.10;99.90;;;;;;4996324;28;20195;-85
2022/01/26 04:56:42;;;;;;;12.03;5.70;;;5.10;99.90;;;;;;4996295;28;20199;-85
2022/01/26 04:59:09;;;;;;;8.50;5.13;;;5.10;99.90;;;;;;4995758;28;20253;-85
2022/01/26 05:01:36;;;;;;;10.83;5.33;;;5.10;99.90;;;;;;4996420;28;20191;-84
2022/01/26 05:04:05;;;;;;;9.50;5.13;;;5.20;99.90;;;;;;4996392;28;20249;-85
2022/01/26 05:06:32;;;;;;;10.87;5.10;;;5.20;99.90;;;;;;4996058;28;20252;-85
2022/01/26 05:08:59;;;;;;;10.80;5.30;;;5.10;99.90;;;;;;4995738;28;20721;-87
2022/01/26 05:11:33;;;;;;;11.80;5.30;;;5.20;99.90;;;;;;4995591;28;20226;-85
2022/01/26 05:14:00;;;;;;;10.13;5.33;;;5.20;99.90;;;;;;4995970;28;20186;-84
2022/01/26 05:16:28;;;;;;;9.50;5.10;;;5.20;99.90;;;;;;4995910;28;20281;-84
2022/01/26 05:18:55;;;;;;;8.23;4.57;;;5.20;99.90;;;;;;4995794;28;20191;-86
2022/01/26 05:21:25;;;;;;;11.53;5.20;;;5.20;99.90;;;;;;4995783;28;20223;-85
2022/01/26 05:23:52;;;;;;;8.17;4.53;;;5.20;99.90;;;;;;4995522;28;20285;-85
2022/01/26 05:26:19;;;;;;;7.17;4.30;;;5.20;99.90;;;;;;4995342;28;20648;-86
2022/01/26 05:28:47;;;;;;;8.63;4.07;;;5.20;99.90;;;;;;4995728;28;20195;-85
2022/01/26 05:31:14;;;;;;;7.80;3.60;;;5.10;99.90;;;;;;4995069;28;20737;-84
2022/01/26 05:33:40;;;;;;;7.10;3.63;;;5.10;99.90;;;;;;4995696;28;20187;-84
2022/01/26 05:36:08;;;;;;;7.45;3.90;;;5.10;99.90;;;;;;4995420;28;20222;-86
2022/01/26 05:38:36;;;;;;;8.33;4.03;;;5.10;99.90;;;;;;4995248;28;20202;-85
2022/01/26 05:41:04;;;;;;;6.60;3.93;;;5.10;99.90;;;;;;4995044;28;20686;-86
2022/01/26 05:43:32;;;;;;;7.30;3.30;;;5.10;99.90;;;;;;4995149;28;20648;-84
2022/01/26 05:46:03;;;;;;;5.40;2.97;;;5.00;99.90;;;;;;4995353;28;20265;-84
2022/01/26 05:48:30;;;;;;;7.03;3.40;;;5.00;99.90;;;;;;4995331;28;20583;-85
2022/01/26 05:51:05;;;;;;;6.70;3.60;;;5.00;99.90;;;;;;4994933;28;20238;-85
2022/01/26 05:53:32;;;;;;;7.67;4.60;;;5.00;99.90;;;;;;4995292;28;20659;-86
2022/01/26 05:56:01;;;;;;;8.00;4.03;;;4.90;99.90;;;;;;4995267;28;20269;-85
2022/01/26 05:58:28;;;;;;;9.13;4.20;;;4.90;99.90;;;;;;4994825;28;20246;-84
2022/01/26 06:00:57;;;;;;;7.07;3.60;;;4.90;99.90;;;;;;4994708;28;20218;-85
2022/01/26 06:03:24;;;;;;;6.73;3.70;;;4.90;99.90;;;;;;4995013;28;20209;-85
2022/01/26 06:05:53;;;;;;;5.93;3.27;;;4.90;99.90;;;;;;4995058;28;20202;-85
2022/01/26 06:08:20;;;;;;;5.97;3.07;;;4.90;99.90;;;;;;4994813;28;20670;-85
2022/01/26 06:10:47;;;;;;;5.17;3.10;;;4.90;99.90;;;;;;4994579;28;20253;-85
2022/01/26 06:13:15;;;;;;;6.90;3.70;;;4.90;99.90;;;;;;4994985;28;20205;-85
2022/01/26 06:15:43;;;;;;;7.30;4.37;;;4.80;99.90;;;;;;4994781;28;20195;-85
2022/01/26 06:18:11;;;;;;;99.03;37.00;;;4.80;99.90;;;;;;4995091;28;20197;-85
2022/01/26 06:20:38;;;;;;;78.30;30.53;;;4.80;99.90;;;;;;4994613;28;20226;-86
2022/01/26 06:23:05;;;;;;;93.87;32.03;;;4.80;99.90;;;;;;4993802;28;20250;-85
2022/01/26 06:25:33;;;;;;;95.20;35.97;;;4.80;99.90;;;;;;4994434;28;20322;-85
2022/01/26 06:28:05;;;;;;;74.30;28.57;;;4.80;99.90;;;;;;4993801;28;20209;-86
2022/01/26 06:30:33;;;;;;;60.23;20.37;;;4.80;99.90;;;;;;4994351;28;20193;-86
2022/01/26 06:33:01;;;;;;;22.33;9.70;;;4.80;99.90;;;;;;4994243;28;20285;-85
2022/01/26 06:35:28;;;;;;;43.93;20.23;;;4.80;99.90;;;;;;4994431;28;20198;-85
2022/01/26 06:37:55;;;;;;;41.17;18.93;;;4.80;99.90;;;;;;4994436;28;20197;-87
2022/01/26 06:40:24;;;;;;;54.43;25.87;;;4.80;99.90;;;;;;4994346;28;20214;-85
2022/01/26 06:42:54;;;;;;;43.40;20.13;;;4.80;99.90;;;;;;4994306;28;20575;-87
2022/01/26 06:45:24;;;;;;;44.17;18.83;;;4.80;99.90;;;;;;4994599;28;20194;-85
2022/01/26 06:48:01;;;;;;;38.53;16.30;;;4.80;99.90;;;;;;4993613;28;20224;-86
2022/01/26 06:50:28;;;;;;;26.57;11.67;;;4.80;99.90;;;;;;4991491;28;20189;-85
2022/01/26 06:52:55;;;;;;;31.27;13.67;;;4.70;99.90;;;;;;4993882;28;20206;-85
2022/01/26 06:55:22;;;;;;;38.37;16.23;;;4.70;99.90;;;;;;4994137;28;20198;-85
2022/01/26 06:57:49;;;;;;;38.50;16.37;;;4.70;99.90;;;;;;4994069;28;20191;-86
2022/01/26 07:00:17;;;;;;;43.30;20.10;;;4.70;99.90;;;;;;4993586;28;20214;-87
2022/01/26 07:02:44;;;;;;;29.17;13.00;;;4.70;99.90;;;;;;4989636;28;20226;-83
2022/01/26 07:05:13;;;;;;;22.03;12.20;;;4.70;99.90;;;;;;4990993;28;20194;-84
2022/01/26 07:07:41;;;;;;;20.90;10.60;;;4.70;99.90;;;;;;4993366;28;20194;-83
2022/01/26 07:10:09;;;;;;;16.17;9.47;;;4.70;99.90;;;;;;4973883;28;20258;-85
2022/01/26 07:12:37;;;;;;;17.13;9.37;;;4.70;99.90;;;;;;4984284;28;20660;-85
2022/01/26 07:23:24;;;;;;;9.73;6.47;;;4.70;99.90;;;;;;4996953;28;20183;-85
2022/01/26 07:25:51;;;;;;;12.30;7.23;;;4.70;99.90;;;;;;5008312;28;20190;-83
2022/01/26 07:28:18;;;;;;;10.07;6.60;;;4.70;99.90;;;;;;4993862;28;20591;-83
2022/01/26 07:31:15;;;;;;;11.00;6.77;;;4.70;99.90;;;;;;5016327;28;20202;-88
2022/01/26 07:33:42;;;;;;;9.90;6.50;;;4.70;99.90;;;;;;4954500;28;20250;-83
2022/01/26 07:36:11;;;;;;;10.60;6.87;;;4.70;99.90;;;;;;4959739;28;20204;-84
2022/01/26 07:38:38;;;;;;;11.17;6.87;;;4.70;99.90;;;;;;4964692;29;20204;-84
2022/01/26 07:41:06;;;;;;;11.90;6.83;;;4.70;99.90;;;;;;4958802;28;20219;-84
2022/01/26 07:43:32;;;;;;;12.47;6.60;;;4.70;99.90;;;;;;4959072;28;20198;-84
2022/01/26 07:45:59;;;;;;;11.37;7.30;;;4.70;99.90;;;;;;4959993;28;20204;-82
2022/01/26 07:48:26;;;;;;;16.47;7.87;;;4.70;99.90;;;;;;4961181;28;20184;-84
2022/01/26 07:51:09;;;;;;;12.03;7.27;;;4.70;99.90;;;;;;4970700;28;20215;-90
2022/01/26 07:53:47;;;;;;;12.60;7.07;;;4.70;99.90;;;;;;4976715;28;20230;-85
2022/01/26 07:56:18;;;;;;;12.03;7.13;;;4.60;99.90;;;;;;4963649;28;20226;-86
2022/01/26 07:58:48;;;;;;;12.77;7.73;;;4.60;99.90;;;;;;4959327;28;20216;-86
2022/01/26 08:01:25;;;;;;;11.80;7.23;;;4.60;99.90;;;;;;4958188;28;20636;-83
2022/01/26 08:03:53;;;;;;;11.10;6.37;;;4.60;99.90;;;;;;4957811;28;20202;-87
2022/01/26 08:06:20;;;;;;;10.07;6.63;;;4.60;99.90;;;;;;4956995;29;20275;-83
2022/01/26 08:08:49;;;;;;;13.97;7.20;;;4.60;99.90;;;;;;4962415;28;20192;-83
2022/01/26 08:11:20;;;;;;;11.67;7.10;;;4.70;99.90;;;;;;4963107;28;20218;-84
2022/01/26 08:13:47;;;;;;;14.03;7.07;;;4.80;99.90;;;;;;4970165;28;20262;-86
2022/01/26 08:16:26;;;;;;;14.90;7.93;;;4.90;99.90;;;;;;4971562;28;20195;-87
2022/01/26 08:18:53;;;;;;;13.77;8.50;;;4.90;99.90;;;;;;4959032;28;20184;-82
2022/01/26 08:21:28;;;;;;;15.60;8.40;;;5.00;99.90;;;;;;4958730;28;20756;-85
2022/01/26 08:24:12;;;;;;;20.53;12.10;;;5.00;99.90;;;;;;4956510;29;20689;-85
2022/01/26 08:26:46;;;;;;;38.13;17.37;;;5.00;99.90;;;;;;4939375;29;20654;-84
2022/01/26 08:29:17;;;;;;;49.03;22.17;;;5.00;99.90;;;;;;4953448;28;20271;-81
2022/01/26 08:31:45;;;;;;;43.83;19.23;;;5.00;99.90;;;;;;4970834;28;20222;-83
2022/01/26 08:34:12;;;;;;;51.40;21.67;;;5.00;99.90;;;;;;4997199;28;20211;-82
2022/01/26 08:36:39;;;;;;;92.17;36.13;;;5.00;99.90;;;;;;4998529;28;20655;-82
2022/01/26 08:39:17;;;;;;;49.93;23.67;;;4.90;99.90;;;;;;4996427;28;20206;-85
2022/01/26 08:41:44;;;;;;;45.37;26.07;;;4.80;99.90;;;;;;4997130;28;20203;-84
2022/01/26 08:44:11;;;;;;;31.17;18.53;;;4.70;91.30;;;;;;4996845;28;20260;-81
2022/01/26 08:46:38;;;;;;;19.07;11.50;;;4.70;75.70;;;;;;4997510;28;20674;-83
2022/01/26 08:49:11;;;;;;;13.70;8.70;;;4.70;69.50;;;;;;5003583;28;20179;-83
2022/01/26 08:51:38;;;;;;;13.43;7.47;;;4.70;66.90;;;;;;4997678;28;20187;-81
2022/01/26 08:54:13;;;;;;;18.40;9.97;;;4.60;70.30;;;;;;5001125;28;20220;-88
2022/01/26 08:56:42;;;;;;;18.87;10.80;;;4.70;73.50;;;;;;4998303;28;20194;-84
2022/01/26 08:59:09;;;;;;;15.60;8.53;;;4.70;77.10;;;;;;5001268;28;20603;-85
2022/01/26 09:01:37;;;;;;;14.87;7.60;;;4.70;71.20;;;;;;4997900;28;20238;-85
2022/01/26 09:04:08;;;;;;;14.73;7.73;;;4.70;70.80;;;;;;5002289;28;20202;-84
2022/01/26 09:06:41;;;;;;;19.43;9.93;;;4.70;64.30;;;;;;4999568;28;20187;-83
2022/01/26 09:09:21;;;;;;;24.73;12.70;;;4.70;72.50;;;;;;5004470;28;20175;-84
2022/01/26 09:11:57;;;;;;;14.47;7.83;;;4.80;72.30;;;;;;5002319;28;20218;-85
2022/01/26 09:14:28;;;;;;;17.50;7.67;;;4.90;90.60;;;;;;4997960;28;20647;-82
2022/01/26 09:16:58;;;;;;;15.70;8.00;;;5.00;96.70;;;;;;5000437;28;20191;-84
2022/01/26 09:19:30;;;;;;;16.60;8.37;;;5.00;99.50;;;;;;5003876;28;20183;-84
2022/01/26 09:22:18;;;;;;;12.03;6.87;;;5.20;95.70;;;;;;5000134;28;20221;-88
2022/01/26 09:24:53;;;;;;;13.10;6.90;;;5.20;91.60;;;;;;4998170;28;20195;-86
2022/01/26 09:27:24;;;;;;;13.10;6.43;;;5.20;75.70;;;;;;4997878;28;20219;-87
2022/01/26 09:29:51;;;;;;;12.40;7.13;;;5.20;42.20;;;;;;4999715;28;20238;-84
2022/01/26 09:32:19;;;;;;;13.73;6.90;;;5.20;22.10;;;;;;5003965;28;20544;-85
2022/01/26 09:34:46;;;;;;;9.60;5.90;;;5.10;19.70;;;;;;4999759;28;20203;-85
2022/01/26 09:37:22;;;;;;;14.53;8.37;;;5.20;18.70;;;;;;5002572;28;20194;-86
2022/01/26 09:39:56;;;;;;;11.97;6.37;;;5.20;12.40;;;;;;4999478;28;20187;-89
2022/01/26 09:42:36;;;;;;;12.33;6.30;;;5.20;4.10;;;;;;5007651;28;20214;-89
2022/01/26 09:45:05;;;;;;;11.17;5.83;;;5.20;1.00;;;;;;5007218;28;20227;-86
2022/01/26 09:47:41;;;;;;;11.83;5.80;;;5.20;1.00;;;;;;5008947;28;20198;-86
2022/01/26 09:50:08;;;;;;;9.10;5.33;;;5.30;1.00;;;;;;4999893;28;20187;-86
2022/01/26 09:52:46;;;;;;;13.43;7.43;;;5.20;1.00;;;;;;5005766;28;20194;-88
2022/01/26 09:55:20;;;;;;;9.47;5.80;;;5.20;1.00;;;;;;5003290;28;20237;-87
2022/01/26 09:57:48;;;;;;;13.30;7.70;;;5.20;1.00;;;;;;5002420;28;20198;-86
2022/01/26 10:00:17;;;;;;;14.33;7.67;;;5.10;1.00;;;;;;5004244;28;20257;-88
2022/01/26 10:02:44;;;;;;;13.50;6.37;;;5.10;1.00;;;;;;4999353;28;20223;-84
2022/01/26 10:05:17;;;;;;;10.53;5.80;;;5.10;1.00;;;;;;5002003;28;20202;-87
2022/01/26 10:08:09;;;;;;;12.77;6.60;;;5.00;1.00;;;;;;5003463;28;20217;-85
2022/01/26 10:16:47;;;;;;;12.43;7.57;;;4.90;1.00;;;;;;5001748;28;20213;-86
2022/01/26 10:19:21;;;;;;;11.10;6.43;;;4.90;1.00;;;;;;4996997;28;20253;-87
2022/01/26 10:21:50;;;;;;;12.47;7.03;;;4.80;1.00;;;;;;4997309;28;20230;-87
2022/01/26 10:24:20;;;;;;;14.03;8.60;;;4.80;1.00;;;;;;4998636;28;20210;-87
2022/01/26 10:26:59;;;;;;;13.80;7.23;;;4.80;1.00;;;;;;5003038;28;20167;-89
2022/01/26 10:29:29;;;;;;;12.00;6.70;;;4.80;1.00;;;;;;4999486;28;20183;-86
2022/01/26 10:31:58;;;;;;;12.50;7.53;;;4.90;1.00;;;;;;4997497;28;20483;-85
2022/01/26 10:34:25;;;;;;;11.97;7.30;;;4.80;1.00;;;;;;4999117;28;20283;-87
2022/01/26 10:37:00;;;;;;;11.57;6.67;;;4.80;1.00;;;;;;5002530;28;20285;-90
2022/01/26 10:39:37;;;;;;;9.97;5.73;;;4.80;1.00;;;;;;5001874;28;20247;-90
2022/01/26 10:42:08;;;;;;;13.03;6.23;;;4.80;1.00;;;;;;4996059;28;20222;-87
2022/01/26 10:44:43;;;;;;;12.73;6.57;;;4.80;1.00;;;;;;4995315;28;20272;-87
2022/01/26 10:47:31;;;;;;;39.67;13.90;;;4.80;1.00;;;;;;5011704;28;20178;-90
2022/01/26 10:50:32;;;;;;;15.43;7.73;;;4.70;1.00;;;;;;5005501;28;20213;-87
2022/01/26 10:53:09;;;;;;;13.80;7.63;;;4.70;1.00;;;;;;4998182;28;20230;-87
2022/01/26 10:55:44;;;;;;;12.27;7.23;;;4.70;1.00;;;;;;4997994;28;20178;-85
2022/01/26 10:58:11;;;;;;;13.07;7.07;;;4.70;1.00;;;;;;5000287;28;20775;-86
2022/01/26 11:00:45;;;;;;;14.33;7.30;;;4.70;1.00;;;;;;5003718;28;20202;-86
2022/01/26 11:03:12;;;;;;;14.67;6.97;;;4.70;1.00;;;;;;5000687;28;20226;-87
2022/01/26 11:05:39;;;;;;;13.50;6.80;;;4.70;1.00;;;;;;5002515;28;20190;-85
2022/01/26 11:08:18;;;;;;;12.73;6.80;;;4.70;1.00;;;;;;4999680;28;20525;-88
2022/01/26 11:10:47;;;;;;;13.27;6.27;;;4.70;1.00;;;;;;4999526;28;20187;-86
2022/01/26 11:13:27;;;;;;;12.53;6.40;;;4.70;1.00;;;;;;4999607;28;20201;-85
2022/01/26 11:16:14;;;;;;;13.70;7.00;;;4.80;1.00;;;;;;4996054;28;20274;-87
2022/01/26 11:18:49;;;;;;;10.03;5.90;;;4.70;1.00;;;;;;4995975;28;20193;-88
2022/01/26 11:21:40;;;;;;;9.97;5.37;;;4.70;1.00;;;;;;4999467;28;20212;-88
2022/01/26 11:24:10;;;;;;;13.37;7.27;;;4.80;1.00;;;;;;5002230;28;20199;-86
2022/01/26 11:26:41;;;;;;;20.17;10.80;;;4.70;1.00;;;;;;4999979;28;20198;-84
2022/01/26 11:29:24;;;;;;;11.90;7.00;;;4.70;1.00;;;;;;4997650;28;20278;-86
2022/01/26 11:32:06;;;;;;;17.30;11.70;;;4.70;1.00;;;;;;4979114;28;20293;-86
2022/01/26 11:34:35;;;;;;;13.73;9.27;;;4.70;1.00;;;;;;4990134;28;20191;-83
2022/01/26 11:37:05;;;;;;;35.23;19.40;;;4.70;1.00;;;;;;4994795;28;20194;-87
2022/01/26 11:45:12;;;;;;;19.93;12.17;;;4.70;1.00;;;;;;4996036;28;20198;-85
2022/01/26 11:48:15;;;;;;;44.87;20.73;;;4.70;1.00;;;;;;4978561;28;20249;-83
2022/01/26 11:50:44;;;;;;;71.83;29.43;;;4.70;1.00;;;;;;4979999;28;20187;-87
2022/01/26 11:53:17;;;;;;;56.63;23.53;;;4.60;1.00;;;;;;4978544;28;20226;-83
2022/01/26 11:55:48;;;;;;;41.57;19.30;;;4.60;1.00;;;;;;4979123;28;20270;-83
2022/01/26 11:58:18;;;;;;;39.37;18.07;;;4.60;1.00;;;;;;4981771;28;20270;-84
2022/01/26 12:01:06;;;;;;;35.30;18.30;;;4.60;1.00;;;;;;4979575;28;20213;-86
2022/01/26 12:03:46;;;;;;;34.20;16.90;;;4.60;1.00;;;;;;4993371;28;20217;-84
2022/01/26 12:06:19;;;;;;;29.47;15.70;;;4.60;1.00;;;;;;4999267;28;20651;-85
2022/01/26 12:08:49;;;;;;;29.03;15.47;;;4.50;1.00;;;;;;4999254;28;20205;-84
2022/01/26 12:11:17;;;;;;;29.90;18.00;;;4.50;1.00;;;;;;4998369;28;20187;-83
2022/01/26 12:13:49;;;;;;;26.67;14.77;;;4.50;1.00;;;;;;5000194;28;20205;-84
2022/01/26 12:16:23;;;;;;;37.20;20.30;;;4.50;1.00;;;;;;4979959;28;20195;-83
2022/01/26 12:19:00;;;;;;;24.10;13.77;;;4.40;1.00;;;;;;4982043;28;20206;-81
2022/01/26 12:35:48;;;;;;;49.90;23.47;;;4.40;1.00;;;;;;5002890;28;20181;-84
2022/01/26 12:38:22;;;;;;;64.77;27.13;;;4.40;1.00;;;;;;5003224;28;20183;-85
2022/01/26 12:43:37;;;;;;;21.03;11.17;;;4.40;1.00;;;;;;5002558;28;20180;-87
2022/01/26 12:46:06;;;;;;;27.23;15.43;;;4.40;1.00;;;;;;5004581;28;20647;-84
2022/01/26 12:48:35;;;;;;;29.27;16.23;;;4.40;1.00;;;;;;5002888;28;20252;-87
2022/01/26 12:51:06;;;;;;;44.97;19.67;;;4.50;1.00;;;;;;5003729;28;20197;-85
2022/01/26 12:53:47;;;;;;;;;;;;;;;;;;;;;
2022/01/26 12:56:14;;;;;;;14.50;8.70;;;4.60;1.00;;;;;;5003630;28;20259;-82
2022/01/26 12:58:58;;;;;;;16.03;9.30;;;4.50;1.00;;;;;;5003369;28;20602;-83
2022/01/26 13:01:35;;;;;;;15.23;9.20;;;4.50;1.00;;;;;;5004829;28;20206;-87
2022/01/26 13:04:04;;;;;;;16.17;8.20;;;4.40;1.00;;;;;;5004081;28;20244;-85
2022/01/26 13:06:36;;;;;;;19.77;11.23;;;4.30;1.00;;;;;;5002800;28;20241;-81
2022/01/26 13:09:17;;;;;;;17.60;9.37;;;4.30;1.00;;;;;;5011256;28;20198;-87
2022/01/26 13:11:47;;;;;;;44.60;19.60;;;4.20;1.00;;;;;;5001685;28;20196;-84
2022/01/26 13:14:22;;;;;;;78.90;32.33;;;4.20;1.00;;;;;;5007337;28;20197;-86
2022/01/26 13:17:04;;;;;;;124.60;48.10;;;4.20;1.00;;;;;;5003459;28;20218;-85
2022/01/26 13:19:41;;;;;;;67.20;27.20;;;4.20;1.00;;;;;;5002027;28;20305;-85
2022/01/26 13:27:58;;;;;;;43.73;24.13;;;4.10;1.00;;;;;;4998387;28;20206;-80
2022/01/26 13:30:45;;;;;;;28.03;17.27;;;4.10;1.00;;;;;;5005346;28;20186;-83
2022/01/26 13:33:53;;;;;;;32.97;20.37;;;4.20;1.00;;;;;;4998103;28;20225;-82
2022/01/26 13:36:36;;;;;;;33.50;21.60;;;4.20;1.00;;;;;;4984898;28;20202;-83
2022/01/26 13:39:18;;;;;;;18.50;11.23;;;4.20;1.00;;;;;;4986702;28;20206;-83
2022/01/26 13:42:07;;;;;;;16.07;8.70;;;4.20;1.00;;;;;;4999957;28;20218;-84
2022/01/26 13:44:52;;;;;;;13.60;8.50;;;4.10;1.00;;;;;;5006451;28;20587;-85
2022/01/26 13:50:20;;;;;;;11.90;6.93;;;4.10;1.00;;;;;;4992991;28;20738;-82
2022/01/26 13:52:53;;;;;;;10.83;6.40;;;4.10;1.00;;;;;;5005826;28;20197;-83
2022/01/26 13:55:56;;;;;;;8.57;5.23;;;4.10;1.00;;;;;;5001281;28;20197;-85
2022/01/26 13:58:41;;;;;;;8.53;5.50;;;4.10;1.00;;;;;;4998638;28;20202;-88
2022/01/26 14:01:19;;;;;;;13.23;7.40;;;4.10;1.00;;;;;;5000471;28;20301;-82
2022/01/26 14:03:51;;;;;;;12.37;6.27;;;4.10;1.00;;;;;;4999021;28;20205;-84
2022/01/26 14:06:18;;;;;;;7.97;4.47;;;4.10;1.00;;;;;;5000631;28;20190;-85
2022/01/26 14:08:54;;;;;;;9.77;5.53;;;4.10;1.00;;;;;;5002653;28;20208;-83
2022/01/26 14:11:25;;;;;;;5.50;3.33;;;4.10;1.00;;;;;;5002998;28;20190;-84
2022/01/26 14:13:55;;;;;;;8.23;3.90;;;4.00;1.00;;;;;;4991347;28;20198;-85
2022/01/26 14:16:25;;;;;;;7.40;3.50;;;4.00;1.00;;;;;;4984207;28;20183;-88
2022/01/26 14:19:06;;;;;;;8.27;4.10;;;4.00;1.00;;;;;;4986303;28;20598;-85
2022/01/26 14:21:54;;;;;;;16.50;7.17;;;4.00;1.00;;;;;;4984461;28;20227;-85
2022/01/26 14:24:30;;;;;;;11.57;6.90;;;4.00;1.00;;;;;;5004614;28;20174;-85
2022/01/26 14:27:08;;;;;;;8.80;4.90;;;4.00;1.00;;;;;;5002924;28;20253;-83
2022/01/26 14:29:58;;;;;;;7.83;4.93;;;3.90;1.00;;;;;;5000685;28;20183;-85
2022/01/26 14:32:58;;;;;;;7.33;4.37;;;3.90;1.00;;;;;;4999451;28;20269;-83
2022/01/26 14:35:45;;;;;;;24.33;16.40;;;3.90;1.00;;;;;;5000931;28;20214;-84
2022/01/26 15:09:01;;;;;;;6.03;3.50;;;3.80;1.00;;;;;;4993695;28;20186;-84
2022/01/26 15:34:16;;;;;;;19.00;9.13;;;3.50;1.00;;;;;;4992816;28;20694;-82
2022/01/26 15:45:04;;;;;;;12.40;6.17;;;3.50;1.00;;;;;;4992449;28;20189;-81
2022/01/26 15:50:26;;;;;;;7.77;3.60;;;3.50;1.00;;;;;;4993277;28;20553;-82
2022/01/26 15:53:02;;;;;;;8.57;4.10;;;3.40;1.00;;;;;;4993230;28;20264;-82
2022/01/26 15:58:20;;;;;;;14.40;7.17;;;3.40;1.00;;;;;;4993310;28;20530;-82
2022/01/26 16:06:23;;;;;;;12.37;5.27;;;3.40;1.00;;;;;;4992897;28;20668;-81